Time;durP1;ratioP1;P1;durP2;ratioP2;P2;SDS_P1;SDS_P2;PMS_P1;PMS_P2;Temp;Humidity;BMP_temperature;BMP_pressure;BME280_temperature;BME280_humidity;BME280_pressure;Samples;Min_cycle;Max_cycle;Signal;HPM_P1;HPM_P2
2020/12/17 00:01:40;;;;;;;;;;;11.90;99.90;;;;;;4720002;30;19954;-77
2020/12/17 00:04:10;;;;;;;;;;;11.90;99.90;;;;;;4734589;30;20290;-77
2020/12/17 00:06:42;;;;;;;;;;;11.90;99.90;;;;;;4719783;30;19920;-77
2020/12/17 00:09:13;;;;;;;;;;;11.90;99.90;;;;;;4734483;30;19963;-77
2020/12/17 00:11:45;;;;;;;;;;;11.90;99.90;;;;;;4734884;30;20440;-77
2020/12/17 00:14:14;;;;;;;;;;;11.90;99.90;;;;;;4750407;30;19954;-77
2020/12/17 00:16:45;;;;;;;;;;;11.90;99.90;;;;;;4736453;30;20042;-77
2020/12/17 00:19:42;;;;;;;;;;;11.90;99.90;;;;;;4752627;30;19991;-77
2020/12/17 00:22:31;;;;;;;;;;;12.00;99.90;;;;;;4744620;30;19918;-77
2020/12/17 00:25:29;;;;;;;;;;;12.00;99.90;;;;;;4734586;30;20401;-77
2020/12/17 00:31:07;;;;;;;;;;;12.00;99.90;;;;;;4715289;30;19922;-77
2020/12/17 00:34:03;;;;;;;;;;;;;;;;;;;;;
2020/12/17 00:36:35;;;;;;;;;;;12.00;99.90;;;;;;4747464;30;19918;-77
2020/12/17 00:39:19;;;;;;;;;;;;;;;;;;;;;
2020/12/17 00:44:47;;;;;;;;;;;11.90;99.90;;;;;;4735622;30;20379;-77
2020/12/17 00:47:29;;;;;;;;;;;12.00;99.90;;;;;;4719698;30;19922;-77
2020/12/17 00:50:20;;;;;;;;;;;12.00;99.90;;;;;;4719365;30;19972;-77
2020/12/17 00:52:55;;;;;;;;;;;11.90;99.90;;;;;;4721177;30;20361;-77
2020/12/17 00:55:45;;;;;;;;;;;12.00;99.90;;;;;;4734995;30;19958;-77
2020/12/17 00:58:20;;;;;;;;;;;12.00;99.90;;;;;;4735780;30;19921;-77
2020/12/17 01:01:03;;;;;;;;;;;12.00;99.90;;;;;;4745762;30;19968;-77
2020/12/17 01:03:34;;;;;;;;;;;12.00;99.90;;;;;;4736985;30;19924;-77
2020/12/17 01:06:18;;;;;;;;;;;11.90;99.90;;;;;;4750782;30;19914;-77
2020/12/17 01:08:44;;;;;;;;;;;11.90;99.90;;;;;;4752838;30;19921;-77
2020/12/17 01:11:12;;;;;;;;;;;11.90;99.90;;;;;;4722630;30;20335;-77
2020/12/17 01:13:51;;;;;;;;;;;;;;;;;;;;;
2020/12/17 01:16:27;;;;;;;;;;;12.00;99.90;;;;;;4752159;30;19920;-77
2020/12/17 01:19:02;;;;;;;;;;;11.90;99.90;;;;;;4736099;30;19922;-77
2020/12/17 01:21:30;;;;;;;;;;;12.00;99.90;;;;;;4736030;30;19922;-77
2020/12/17 01:24:23;;;;;;;;;;;11.90;99.90;;;;;;4751937;30;19921;-77
2020/12/17 01:27:06;;;;;;;;;;;11.90;99.90;;;;;;4752355;30;20355;-77
2020/12/17 01:29:34;;;;;;;;;;;11.80;99.90;;;;;;4748624;30;19922;-77
2020/12/17 01:32:14;;;;;;;;;;;11.90;99.90;;;;;;4751355;30;19937;-77
2020/12/17 01:34:45;;;;;;;;;;;11.90;99.90;;;;;;4752010;30;20470;-77
2020/12/17 01:37:36;;;;;;;;;;;11.90;99.90;;;;;;4736383;30;20428;-77
2020/12/17 01:40:20;;;;;;;;;;;11.90;99.90;;;;;;4728180;30;20000;-77
2020/12/17 01:42:58;;;;;;;;;;;11.90;99.90;;;;;;4751994;30;19918;-77
2020/12/17 01:45:26;;;;;;;;;;;11.90;99.90;;;;;;4735862;30;20000;-77
2020/12/17 01:47:57;;;;;;;;;;;11.80;99.90;;;;;;4735640;30;19914;-77
2020/12/17 01:50:53;;;;;;;;;;;;;;;;;;;;;
2020/12/17 01:53:40;;;;;;;;;;;11.70;99.90;;;;;;4746545;30;20282;-77
2020/12/17 01:56:42;;;;;;;;;;;;;;;;;;;;;
2020/12/17 01:59:35;;;;;;;;;;;11.70;99.90;;;;;;4751433;30;20366;-77
2020/12/17 02:02:10;;;;;;;;;;;11.40;99.90;;;;;;4750536;30;20268;-77
2020/12/17 02:05:24;;;;;;;;;;;11.40;99.90;;;;;;4735677;30;19999;-77
2020/12/17 02:08:00;;;;;;;;;;;11.40;99.90;;;;;;4655715;30;19998;-77
2020/12/17 02:10:40;;;;;;;;;;;11.50;99.90;;;;;;4666833;30;19916;-78
2020/12/17 02:13:13;;;;;;;;;;;11.50;99.90;;;;;;4732681;30;19923;-77
2020/12/17 02:15:45;;;;;;;;;;;11.50;99.90;;;;;;4713016;30;19915;-77
2020/12/17 02:18:34;;;;;;;;;;;11.60;99.90;;;;;;4718936;30;19963;-77
2020/12/17 02:21:08;;;;;;;;;;;11.60;99.90;;;;;;4733951;30;19985;-77
2020/12/17 02:26:38;;;;;;;;;;;11.50;99.90;;;;;;4708107;30;19976;-77
2020/12/17 02:29:22;;;;;;;;;;;11.60;99.90;;;;;;4718051;30;19988;-77
2020/12/17 02:32:07;;;;;;;;;;;11.60;99.90;;;;;;4719261;30;20020;-77
2020/12/17 02:34:58;;;;;;;;;;;;;;;;;;;;;
2020/12/17 02:37:41;;;;;;;;;;;11.50;99.90;;;;;;4729584;30;19914;-77
2020/12/17 02:40:32;;;;;;;;;;;11.50;99.90;;;;;;4732998;30;20012;-77
2020/12/17 02:43:10;;;;;;;;;;;11.50;99.90;;;;;;4734254;30;19921;-77
2020/12/17 02:46:10;;;;;;;;;;;11.60;99.90;;;;;;4733713;30;19964;-77
2020/12/17 02:52:13;;;;;;;;;;;11.60;99.90;;;;;;4696938;30;19915;-77
2020/12/17 02:54:54;;;;;;;;;;;11.60;99.90;;;;;;4730615;30;19915;-77
2020/12/17 02:57:53;;;;;;;;;;;;;;;;;;;;;
2020/12/17 03:00:25;;;;;;;;;;;11.50;99.90;;;;;;4734311;30;20286;-77
2020/12/17 03:02:56;;;;;;;;;;;11.50;99.90;;;;;;4733611;30;19925;-77
2020/12/17 03:05:27;;;;;;;;;;;11.50;99.90;;;;;;4717922;30;19918;-77
2020/12/17 03:07:56;;;;;;;;;;;11.50;99.90;;;;;;4717998;30;19925;-77
2020/12/17 03:13:28;;;;;;;;;;;11.50;99.90;;;;;;4727587;30;19923;-77
2020/12/17 03:16:26;;;;;;;;;;;11.50;99.90;;;;;;4719485;30;19914;-77
2020/12/17 03:19:07;;;;;;;;;;;11.50;99.90;;;;;;4716888;30;20005;-77
2020/12/17 03:21:40;;;;;;;;;;;11.50;99.90;;;;;;4716967;30;19923;-77
2020/12/17 03:24:21;;;;;;;;;;;11.60;99.90;;;;;;4716341;30;19949;-77
2020/12/17 03:36:59;;;;;;;;;;;11.50;99.90;;;;;;4712782;30;19929;-77
2020/12/17 03:39:50;;;;;;;;;;;11.50;99.90;;;;;;4715604;30;19925;-77
2020/12/17 03:51:44;;;;;;;;;;;11.50;99.90;;;;;;4729958;30;20442;-77
2020/12/17 03:54:15;;;;;;;;;;;11.50;99.90;;;;;;4721622;30;20052;-77
2020/12/17 03:56:51;;;;;;;;;;;11.60;99.90;;;;;;4734403;30;19965;-77
2020/12/17 03:59:28;;;;;;;;;;;11.60;99.90;;;;;;4735653;30;19930;-77
2020/12/17 04:02:35;;;;;;;;;;;11.60;99.90;;;;;;4735222;30;19915;-77
2020/12/17 04:05:13;;;;;;;;;;;11.60;99.90;;;;;;4734611;30;19926;-77
2020/12/17 04:07:44;;;;;;;;;;;11.50;99.90;;;;;;4734191;30;19914;-77
2020/12/17 04:10:20;;;;;;;;;;;11.50;99.90;;;;;;4720369;30;19921;-77
2020/12/17 04:15:43;;;;;;;;;;;11.40;99.90;;;;;;4744900;30;19921;-77
2020/12/17 04:18:35;;;;;;;;;;;11.50;99.90;;;;;;4752102;30;19921;-77
2020/12/17 04:21:16;;;;;;;;;;;;;;;;;;;;;
2020/12/17 04:23:45;;;;;;;;;;;11.50;99.90;;;;;;4753614;30;19921;-77
2020/12/17 04:26:52;;;;;;;;;;;11.50;99.90;;;;;;4751990;30;19940;-77
2020/12/17 04:29:32;;;;;;;;;;;11.50;99.90;;;;;;4719863;30;19918;-77
2020/12/17 04:32:09;;;;;;;;;;;11.50;99.90;;;;;;4737437;30;20044;-77
2020/12/17 04:34:56;;;;;;;;;;;11.40;99.90;;;;;;4752969;30;19914;-77
2020/12/17 04:37:43;;;;;;;;;;;11.30;99.90;;;;;;4737082;30;19917;-77
2020/12/17 04:40:44;;;;;;;;;;;;;;;;;;;;;
2020/12/17 04:43:20;;;;;;;;;;;11.30;99.90;;;;;;4753512;30;19924;-77
2020/12/17 04:46:05;;;;;;;;;;;11.20;99.90;;;;;;4751251;30;19914;-77
2020/12/17 04:49:06;;;;;;;;;;;;;;;;;;;;;
2020/12/17 04:52:13;;;;;;;;;;;11.20;99.90;;;;;;4753121;30;19921;-77
2020/12/17 04:55:07;;;;;;;;;;;11.20;99.90;;;;;;4752545;30;20375;-77
2020/12/17 04:57:53;;;;;;;;;;;11.20;99.90;;;;;;4737050;30;20407;-77
2020/12/17 05:04:21;;;;;;;;;;;;;;;;;;;;;
2020/12/17 05:09:56;;;;;;;;;;;11.10;99.90;;;;;;4735169;30;19921;-79
2020/12/17 05:13:02;;;;;;;;;;;11.10;99.90;;;;;;4741973;30;20017;-77
2020/12/17 05:35:07;;;;;;;;;;;10.80;99.90;;;;;;4530520;31;19976;-77
2020/12/17 05:37:33;;;;;;;;;;;10.80;99.90;;;;;;4588032;30;19938;-80
2020/12/17 05:40:02;;;;;;;;;;;10.80;99.90;;;;;;4692181;30;19930;-77
2020/12/17 05:42:27;;;;;;;;;;;10.70;99.90;;;;;;4735345;30;19920;-77
2020/12/17 05:44:53;;;;;;;;;;;10.70;99.90;;;;;;4734758;30;20009;-78
2020/12/17 05:47:26;;;;;;;;;;;10.70;99.90;;;;;;4733439;30;19914;-74
2020/12/17 05:49:52;;;;;;;;;;;10.70;99.90;;;;;;4712181;30;19915;-77
2020/12/17 05:52:22;;;;;;;;;;;10.70;99.90;;;;;;4728999;30;19964;-77
2020/12/17 05:54:56;;;;;;;;;;;10.60;99.90;;;;;;4716605;30;19914;-77
2020/12/17 05:57:23;;;;;;;;;;;10.60;99.90;;;;;;4717961;30;20031;-77
2020/12/17 05:59:56;;;;;;;;;;;10.60;99.90;;;;;;4716488;30;19949;-77
2020/12/17 06:02:22;;;;;;;;;;;10.60;99.90;;;;;;4730489;30;19926;-78
2020/12/17 06:05:02;;;;;;;;;;;10.50;99.90;;;;;;4732336;30;19925;-77
2020/12/17 06:08:26;;;;;;;;;;;10.50;99.90;;;;;;4716291;30;19921;-78
2020/12/17 06:10:48;;;;;;;;;;;10.50;99.90;;;;;;4724416;30;19914;-77
2020/12/17 06:16:30;;;;;;;;;;;10.50;99.90;;;;;;4733815;30;19925;-77
2020/12/17 06:25:41;;;;;;;;;;;10.60;99.90;;;;;;4729252;30;19925;-74
2020/12/17 06:28:17;;;;;;;;;;;10.50;99.90;;;;;;4730420;30;20028;-74
2020/12/17 06:30:44;;;;;;;;;;;10.50;99.90;;;;;;4729097;30;19918;-74
2020/12/17 06:33:11;;;;;;;;;;;10.50;99.90;;;;;;4728948;30;20383;-74
2020/12/17 06:35:53;;;;;;;;;;;10.50;99.90;;;;;;4731140;30;19953;-76
2020/12/17 06:38:23;;;;;;;;;;;10.50;99.90;;;;;;4731511;30;19918;-75
2020/12/17 06:40:49;;;;;;;;;;;10.50;99.90;;;;;;4743815;30;19922;-75
2020/12/17 06:43:33;;;;;;;;;;;10.50;99.90;;;;;;4729315;30;19915;-75
2020/12/17 06:46:02;;;;;;;;;;;10.50;99.90;;;;;;4728753;30;19918;-75
2020/12/17 06:48:38;;;;;;;;;;;10.40;99.90;;;;;;4730773;30;19914;-75
2020/12/17 06:51:23;;;;;;;;;;;10.40;99.90;;;;;;4745840;30;19945;-76
2020/12/17 06:53:48;;;;;;;;;;;10.40;99.90;;;;;;4752953;30;19918;-75
2020/12/17 06:56:17;;;;;;;;;;;10.40;99.90;;;;;;4750181;30;19915;-75
2020/12/17 06:58:43;;;;;;;;;;;10.40;99.90;;;;;;4767117;30;20008;-75
2020/12/17 07:01:26;;;;;;;;;;;10.40;99.90;;;;;;4754433;30;19914;-75
2020/12/17 07:03:52;;;;;;;;;;;10.50;99.90;;;;;;4754495;30;19914;-76
2020/12/17 07:06:22;;;;;;;;;;;10.50;99.90;;;;;;4753163;30;20005;-77
2020/12/17 07:08:49;;;;;;;;;;;10.50;99.90;;;;;;4753804;30;19945;-74
2020/12/17 07:11:34;;;;;;;;;;;10.40;99.90;;;;;;4754544;30;19914;-74
2020/12/17 07:14:10;;;;;;;;;;;10.40;99.90;;;;;;4747750;30;19914;-74
2020/12/17 07:16:39;;;;;;;;;;;10.40;99.90;;;;;;4743756;30;19949;-74
2020/12/17 07:19:18;;;;;;;;;;;10.50;99.90;;;;;;4753232;30;20436;-74
2020/12/17 07:21:55;;;;;;;;;;;10.50;99.90;;;;;;4753389;30;19918;-75
2020/12/17 07:24:23;;;;;;;;;;;10.50;99.90;;;;;;4737870;30;19929;-75
2020/12/17 07:26:48;;;;;;;;;;;10.50;99.90;;;;;;4738654;30;19921;-74
2020/12/17 07:32:21;;;;;;;;;;;10.50;99.90;;;;;;4734151;30;19915;-74
2020/12/17 07:34:47;;;;;;;;;;;10.50;99.90;;;;;;4733849;30;19914;-74
2020/12/17 07:37:36;;;;;;;;;;;10.60;99.90;;;;;;4740045;30;19954;-74
2020/12/17 07:40:15;;;;;;;;;;;10.60;99.90;;;;;;4743278;30;19922;-74
2020/12/17 07:42:57;;;;;;;;;;;10.60;99.90;;;;;;4759029;30;19913;-74
2020/12/17 07:45:43;;;;;;;;;;;10.60;99.90;;;;;;4748955;30;19914;-75
2020/12/17 07:48:28;;;;;;;;;;;10.60;99.90;;;;;;4760552;30;19976;-74
2020/12/17 07:50:56;;;;;;;;;;;10.60;99.90;;;;;;4752262;30;19925;-74
2020/12/17 07:53:25;;;;;;;;;;;10.60;99.90;;;;;;4738076;30;19961;-74
2020/12/17 07:55:51;;;;;;;;;;;10.60;99.90;;;;;;4754082;30;20063;-74
2020/12/17 07:58:17;;;;;;;;;;;10.60;99.90;;;;;;4740037;30;20005;-74
2020/12/17 08:00:43;;;;;;;;;;;10.60;99.90;;;;;;4752148;30;19926;-74
2020/12/17 08:03:09;;;;;;;;;;;10.70;99.90;;;;;;4753684;30;19921;-74
2020/12/17 08:05:34;;;;;;;;;;;10.80;99.90;;;;;;4738160;30;20283;-74
2020/12/17 08:08:00;;;;;;;;;;;10.90;99.90;;;;;;4754089;30;19921;-74
2020/12/17 08:10:26;;;;;;;;;;;11.10;99.90;;;;;;4743909;30;19915;-74
2020/12/17 08:12:52;;;;;;;;;;;11.10;99.90;;;;;;4753428;30;19939;-74
2020/12/17 08:15:20;;;;;;;;;;;11.20;99.90;;;;;;4753758;30;20248;-74
2020/12/17 08:17:47;;;;;;;;;;;11.20;99.90;;;;;;4737964;30;19914;-74
2020/12/17 08:20:16;;;;;;;;;;;11.20;99.90;;;;;;4752804;30;19933;-74
2020/12/17 08:22:45;;;;;;;;;;;11.10;99.90;;;;;;4737200;30;20270;-74
2020/12/17 08:25:11;;;;;;;;;;;11.20;99.90;;;;;;4741018;30;19949;-74
2020/12/17 08:27:37;;;;;;;;;;;11.30;99.90;;;;;;4719862;30;20363;-75
2020/12/17 08:30:03;;;;;;;;;;;11.50;99.90;;;;;;4718676;30;19915;-74
2020/12/17 08:32:32;;;;;;;;;;;11.50;99.90;;;;;;4735548;30;20274;-74
2020/12/17 08:34:57;;;;;;;;;;;11.30;99.90;;;;;;4719650;30;20498;-74
2020/12/17 08:37:23;;;;;;;;;;;11.10;99.90;;;;;;4729711;30;19922;-74
2020/12/17 08:40:05;;;;;;;;;;;11.10;99.90;;;;;;4728599;30;19923;-75
2020/12/17 08:42:32;;;;;;;;;;;11.10;99.90;;;;;;4735720;30;20004;-75
2020/12/17 08:45:24;;;;;;;;;;;11.10;99.90;;;;;;4726591;30;19914;-74
2020/12/17 08:48:25;;;;;;;;;;;11.20;99.90;;;;;;4707471;30;19914;-74
2020/12/17 08:50:52;;;;;;;;;;;11.30;99.90;;;;;;4721738;30;19921;-73
2020/12/17 08:53:28;;;;;;;;;;;11.30;99.90;;;;;;4718373;30;19919;-74
2020/12/17 08:56:03;;;;;;;;;;;11.40;99.90;;;;;;4739144;30;19919;-74
2020/12/17 08:58:48;;;;;;;;;;;11.50;99.90;;;;;;4732881;30;20001;-74
2020/12/17 09:01:22;;;;;;;;;;;11.40;99.90;;;;;;4734315;30;19970;-74
2020/12/17 09:03:48;;;;;;;;;;;11.20;99.90;;;;;;4734897;30;20371;-74
2020/12/17 09:06:14;;;;;;;;;;;11.30;99.90;;;;;;4734471;30;19914;-74
2020/12/17 09:08:40;;;;;;;;;;;11.20;99.90;;;;;;4734792;30;19984;-73
2020/12/17 09:11:26;;;;;;;;;;;11.20;99.90;;;;;;4733488;30;19957;-74
2020/12/17 09:14:02;;;;;;;;;;;11.10;99.90;;;;;;4718361;30;19957;-73
2020/12/17 09:16:28;;;;;;;;;;;11.00;99.90;;;;;;4734030;30;19958;-73
2020/12/17 09:18:55;;;;;;;;;;;11.10;99.90;;;;;;4733576;30;19992;-74
2020/12/17 09:21:20;;;;;;;;;;;11.00;99.90;;;;;;4734340;30;19914;-74
2020/12/17 09:23:52;;;;;;;;;;;10.90;99.90;;;;;;4734335;30;19927;-74
2020/12/17 09:26:18;;;;;;;;;;;11.00;99.90;;;;;;4749431;30;19949;-74
2020/12/17 09:28:47;;;;;;;;;;;11.00;99.90;;;;;;4751643;30;20371;-74
2020/12/17 09:31:23;;;;;;;;;;;11.10;99.90;;;;;;4750594;30;20358;-73
2020/12/17 09:33:49;;;;;;;;;;;11.10;99.90;;;;;;4735701;30;20008;-74
2020/12/17 09:36:18;;;;;;;;;;;11.20;99.90;;;;;;4744447;30;19993;-74
2020/12/17 09:38:43;;;;;;;;;;;11.20;99.90;;;;;;4751485;30;20018;-74
2020/12/17 09:41:15;;;;;;;;;;;11.40;99.90;;;;;;4736304;30;20009;-74
2020/12/17 09:43:47;;;;;;;;;;;11.50;99.90;;;;;;4751952;30;19914;-74
2020/12/17 09:46:13;;;;;;;;;;;11.70;99.90;;;;;;4744443;30;19994;-74
2020/12/17 09:48:39;;;;;;;;;;;11.90;99.90;;;;;;4717986;30;19967;-73
2020/12/17 09:51:09;;;;;;;;;;;11.90;99.90;;;;;;4751412;30;20379;-74
2020/12/17 09:53:39;;;;;;;;;;;12.00;99.90;;;;;;4751568;30;20351;-74
2020/12/17 09:56:11;;;;;;;;;;;11.90;99.90;;;;;;4751579;30;19918;-74
2020/12/17 09:58:38;;;;;;;;;;;12.00;99.90;;;;;;4750951;30;19921;-74
2020/12/17 10:01:04;;;;;;;;;;;12.20;99.90;;;;;;4750077;30;20007;-74
2020/12/17 10:03:30;;;;;;;;;;;12.20;99.90;;;;;;4751079;30;19914;-74
2020/12/17 10:05:56;;;;;;;;;;;12.30;99.90;;;;;;4751033;30;19968;-74
2020/12/17 10:08:21;;;;;;;;;;;12.30;99.90;;;;;;4751171;30;19914;-74
2020/12/17 10:10:47;;;;;;;;;;;12.40;99.90;;;;;;4750927;30;20008;-74
2020/12/17 10:13:15;;;;;;;;;;;12.40;99.90;;;;;;4751453;30;19918;-73
2020/12/17 10:15:41;;;;;;;;;;;12.30;99.90;;;;;;4749963;30;19914;-73
2020/12/17 10:18:07;;;;;;;;;;;12.30;99.90;;;;;;4750878;30;20445;-74
2020/12/17 10:20:33;;;;;;;;;;;12.30;99.90;;;;;;4744161;30;19933;-74
2020/12/17 10:22:59;;;;;;;;;;;12.30;99.90;;;;;;4752999;30;20013;-74
2020/12/17 10:25:24;;;;;;;;;;;12.30;99.90;;;;;;4753717;30;20009;-74
2020/12/17 10:27:52;;;;;;;;;;;12.20;99.90;;;;;;4754641;30;19914;-74
2020/12/17 10:30:18;;;;;;;;;;;12.20;99.90;;;;;;4754974;30;19944;-74
2020/12/17 10:32:43;;;;;;;;;;;12.30;99.90;;;;;;4753491;30;20370;-74
2020/12/17 10:35:35;;;;;;;;;;;12.30;99.90;;;;;;4754063;30;20328;-74
2020/12/17 10:38:01;;;;;;;;;;;12.40;99.90;;;;;;4744834;30;20366;-74
2020/12/17 10:40:27;;;;;;;;;;;12.40;99.90;;;;;;4754930;30;19999;-74
2020/12/17 10:42:52;;;;;;;;;;;12.50;99.90;;;;;;4753534;30;19918;-74
2020/12/17 10:45:18;;;;;;;;;;;12.50;99.90;;;;;;4754482;30;19914;-74
2020/12/17 10:47:44;;;;;;;;;;;12.60;99.90;;;;;;4755705;30;19933;-74
2020/12/17 10:50:09;;;;;;;;;;;12.70;99.90;;;;;;4755322;30;19921;-74
2020/12/17 10:52:35;;;;;;;;;;;12.70;99.90;;;;;;4755254;30;19914;-74
2020/12/17 10:55:01;;;;;;;;;;;12.80;99.90;;;;;;4755176;30;20248;-74
2020/12/17 10:57:26;;;;;;;;;;;12.80;99.90;;;;;;4753907;30;19944;-74
2020/12/17 10:59:52;;;;;;;;;;;12.80;99.90;;;;;;4755091;30;19922;-74
2020/12/17 11:02:18;;;;;;;;;;;12.80;99.90;;;;;;4753845;30;19918;-74
2020/12/17 11:04:44;;;;;;;;;;;12.80;99.90;;;;;;4754221;30;19914;-74
2020/12/17 11:07:09;;;;;;;;;;;12.80;99.90;;;;;;4754875;30;19914;-74
2020/12/17 11:09:35;;;;;;;;;;;12.70;99.90;;;;;;4754114;30;20281;-74
2020/12/17 11:12:01;;;;;;;;;;;12.70;99.90;;;;;;4754864;30;19922;-74
2020/12/17 11:14:26;;;;;;;;;;;12.70;99.90;;;;;;4753535;30;20001;-74
2020/12/17 11:16:52;;;;;;;;;;;12.60;99.90;;;;;;4754874;30;20266;-74
2020/12/17 11:19:18;;;;;;;;;;;12.60;99.90;;;;;;4754004;30;19971;-74
2020/12/17 11:21:47;;;;;;;;;;;12.50;99.90;;;;;;4754870;30;19914;-74
2020/12/17 11:24:12;;;;;;;;;;;12.60;99.90;;;;;;4738528;30;19922;-75
2020/12/17 11:26:45;;;;;;;;;;;12.60;99.90;;;;;;4724130;30;19914;-74
2020/12/17 11:29:11;;;;;;;;;;;12.60;99.90;;;;;;4742325;30;19926;-74
2020/12/17 11:31:37;;;;;;;;;;;12.60;99.90;;;;;;4732232;30;19980;-74
2020/12/17 11:34:03;;;;;;;;;;;12.60;99.90;;;;;;4730845;30;20008;-74
2020/12/17 11:36:29;;;;;;;;;;;12.70;99.90;;;;;;4746641;30;19957;-74
2020/12/17 11:38:55;;;;;;;;;;;12.70;99.90;;;;;;4734788;30;19914;-75
2020/12/17 11:41:20;;;;;;;;;;;12.80;99.90;;;;;;4735510;30;19914;-74
2020/12/17 11:43:46;;;;;;;;;;;12.90;99.90;;;;;;4734605;30;20052;-74
2020/12/17 11:46:12;;;;;;;;;;;13.00;99.90;;;;;;4734398;30;20013;-74
2020/12/17 11:48:38;;;;;;;;;;;13.00;99.90;;;;;;4720329;30;20045;-75
2020/12/17 11:51:03;;;;;;;;;;;13.00;99.90;;;;;;4734126;30;19914;-74
2020/12/17 11:53:29;;;;;;;;;;;12.90;99.90;;;;;;4734761;30;19914;-74
2020/12/17 11:55:55;;;;;;;;;;;13.00;99.90;;;;;;4734039;30;19919;-74
2020/12/17 11:58:20;;;;;;;;;;;13.00;99.90;;;;;;4735519;30;20452;-75
2020/12/17 12:00:46;;;;;;;;;;;12.90;99.90;;;;;;4736037;30;19926;-74
2020/12/17 12:03:12;;;;;;;;;;;12.80;99.90;;;;;;4735296;30;19968;-74
2020/12/17 12:05:37;;;;;;;;;;;12.90;99.90;;;;;;4733869;30;19920;-74
2020/12/17 12:08:03;;;;;;;;;;;12.80;99.90;;;;;;4717122;30;20364;-74
2020/12/17 12:10:30;;;;;;;;;;;12.80;99.90;;;;;;4727245;30;19941;-74
2020/12/17 12:12:56;;;;;;;;;;;12.90;99.90;;;;;;4758525;30;19918;-74
2020/12/17 12:15:22;;;;;;;;;;;13.00;99.90;;;;;;4749993;30;20004;-74
2020/12/17 12:17:47;;;;;;;;;;;13.10;99.90;;;;;;4748665;30;20444;-74
2020/12/17 12:20:16;;;;;;;;;;;13.30;99.90;;;;;;4735979;30;19976;-74
2020/12/17 12:22:42;;;;;;;;;;;13.40;99.90;;;;;;4747635;30;19918;-74
2020/12/17 12:25:07;;;;;;;;;;;13.50;99.90;;;;;;4742115;30;20355;-74
2020/12/17 12:27:33;;;;;;;;;;;13.50;99.90;;;;;;4750249;30;19921;-74
2020/12/17 12:29:59;;;;;;;;;;;13.60;99.90;;;;;;4753202;30;19922;-74
2020/12/17 12:32:24;;;;;;;;;;;13.70;99.90;;;;;;4753287;30;20030;-73
2020/12/17 12:34:50;;;;;;;;;;;13.70;99.90;;;;;;4751323;30;19921;-73
2020/12/17 12:37:16;;;;;;;;;;;13.70;99.90;;;;;;4752027;30;19914;-74
2020/12/17 12:39:42;;;;;;;;;;;13.70;99.90;;;;;;4751709;30;20404;-73
2020/12/17 12:42:08;;;;;;;;;;;13.70;99.90;;;;;;4750618;30;20363;-74
2020/12/17 12:44:33;;;;;;;;;;;13.60;99.90;;;;;;4747829;30;19976;-74
2020/12/17 12:46:59;;;;;;;;;;;13.60;99.90;;;;;;4746552;30;19925;-74
2020/12/17 12:49:25;;;;;;;;;;;13.60;99.90;;;;;;4747219;30;20315;-73
2020/12/17 12:51:51;;;;;;;;;;;13.60;99.90;;;;;;4735490;30;20001;-74
2020/12/17 12:54:16;;;;;;;;;;;13.50;99.90;;;;;;4748574;30;19914;-73
2020/12/17 12:56:42;;;;;;;;;;;13.60;99.90;;;;;;4733758;30;19914;-74
2020/12/17 12:59:08;;;;;;;;;;;13.60;99.90;;;;;;4734728;30;19919;-74
2020/12/17 13:01:37;;;;;;;;;;;13.60;99.90;;;;;;4748536;30;19922;-74
2020/12/17 13:04:03;;;;;;;;;;;13.60;99.90;;;;;;4735911;30;19914;-74
2020/12/17 13:06:28;;;;;;;;;;;13.60;99.90;;;;;;4752437;30;19963;-74
2020/12/17 13:08:54;;;;;;;;;;;13.50;99.90;;;;;;4752531;30;20325;-74
2020/12/17 13:11:24;;;;;;;;;;;13.50;99.90;;;;;;4750268;30;19952;-74
2020/12/17 13:13:50;;;;;;;;;;;13.50;99.90;;;;;;4752373;30;19922;-74
2020/12/17 13:16:22;;;;;;;;;;;13.30;99.90;;;;;;4751812;30;20299;-74
2020/12/17 13:18:48;;;;;;;;;;;13.20;99.90;;;;;;4752102;30;19921;-74
2020/12/17 13:21:17;;;;;;;;;;;13.10;99.90;;;;;;4750948;30;19926;-74
2020/12/17 13:23:43;;;;;;;;;;;13.10;99.90;;;;;;4754263;30;20463;-74
2020/12/17 13:26:09;;;;;;;;;;;13.10;99.90;;;;;;4746270;30;19964;-74
2020/12/17 13:28:34;;;;;;;;;;;13.10;99.90;;;;;;4745914;30;19933;-74
2020/12/17 13:31:00;;;;;;;;;;;13.00;99.90;;;;;;4733541;30;20326;-74
2020/12/17 13:33:26;;;;;;;;;;;13.00;99.90;;;;;;4765683;30;19925;-74
2020/12/17 13:35:52;;;;;;;;;;;12.90;99.90;;;;;;4765242;30;19914;-74
2020/12/17 13:38:17;;;;;;;;;;;12.90;99.90;;;;;;4749671;30;19953;-74
2020/12/17 13:40:43;;;;;;;;;;;12.80;99.90;;;;;;4744437;30;19930;-74
2020/12/17 13:43:08;;;;;;;;;;;12.70;99.90;;;;;;4748951;30;19918;-74
2020/12/17 13:45:34;;;;;;;;;;;12.70;99.90;;;;;;4750775;30;19924;-73
2020/12/17 13:48:00;;;;;;;;;;;12.70;99.90;;;;;;4759110;30;20000;-74
2020/12/17 13:50:26;;;;;;;;;;;12.60;99.90;;;;;;4768777;30;19920;-74
2020/12/17 13:52:51;;;;;;;;;;;12.60;99.90;;;;;;4767174;30;19944;-74
2020/12/17 13:55:17;;;;;;;;;;;12.50;99.90;;;;;;4753247;30;20347;-73
2020/12/17 13:57:43;;;;;;;;;;;12.50;99.90;;;;;;4757668;30;19922;-74
2020/12/17 14:00:08;;;;;;;;;;;12.50;99.90;;;;;;4747607;30;19957;-74
2020/12/17 14:02:35;;;;;;;;;;;12.50;99.90;;;;;;4751280;30;19922;-74
2020/12/17 14:05:01;;;;;;;;;;;12.50;99.90;;;;;;4751285;30;19915;-74
2020/12/17 14:07:27;;;;;;;;;;;12.40;99.90;;;;;;4751566;30;19944;-74
2020/12/17 14:09:53;;;;;;;;;;;12.40;99.90;;;;;;4751276;30;20321;-73
2020/12/17 14:12:18;;;;;;;;;;;12.40;99.90;;;;;;4750744;30;19957;-74
2020/12/17 14:14:44;;;;;;;;;;;12.40;99.90;;;;;;4749956;30;20005;-74
2020/12/17 14:17:10;;;;;;;;;;;12.30;99.90;;;;;;4750573;30;19914;-74
2020/12/17 14:19:35;;;;;;;;;;;12.20;99.90;;;;;;4750954;30;20032;-74
2020/12/17 14:22:01;;;;;;;;;;;12.10;99.90;;;;;;4750758;30;19968;-74
2020/12/17 14:24:26;;;;;;;;;;;12.20;99.90;;;;;;4732701;30;19929;-74
2020/12/17 14:26:52;;;;;;;;;;;12.10;99.90;;;;;;4733682;30;19922;-74
2020/12/17 14:29:18;;;;;;;;;;;12.10;99.90;;;;;;4733283;30;19914;-74
2020/12/17 14:31:43;;;;;;;;;;;12.10;99.90;;;;;;4732239;30;19919;-74
2020/12/17 14:34:09;;;;;;;;;;;12.10;99.90;;;;;;4733147;30;19976;-74
2020/12/17 14:36:38;;;;;;;;;;;12.10;99.90;;;;;;4717488;30;20395;-74
2020/12/17 14:39:04;;;;;;;;;;;12.10;99.90;;;;;;4732975;30;20360;-74
2020/12/17 14:41:30;;;;;;;;;;;12.10;99.90;;;;;;4733767;30;19918;-74
2020/12/17 14:43:56;;;;;;;;;;;12.10;99.90;;;;;;4717414;30;19914;-73
2020/12/17 14:46:21;;;;;;;;;;;12.10;99.90;;;;;;4715857;30;20461;-73
2020/12/17 14:48:48;;;;;;;;;;;12.10;99.90;;;;;;4731249;30;19914;-74
2020/12/17 14:51:24;;;;;;;;;;;12.00;99.90;;;;;;4731946;30;19993;-74
2020/12/17 14:53:50;;;;;;;;;;;12.00;99.90;;;;;;4732221;30;19915;-74
2020/12/17 14:56:31;;;;;;;;;;;11.90;99.90;;;;;;4732099;30;20386;-74
2020/12/17 14:58:56;;;;;;;;;;;11.80;99.90;;;;;;4742673;30;19996;-74
2020/12/17 15:01:50;;;;;;;;;;;11.80;99.90;;;;;;4749411;30;19961;-73
2020/12/17 15:04:16;;;;;;;;;;;11.70;99.90;;;;;;4750791;30;19921;-74
2020/12/17 15:06:41;;;;;;;;;;;11.70;99.90;;;;;;4749508;30;19921;-73
2020/12/17 15:09:07;;;;;;;;;;;11.60;99.90;;;;;;4750263;30;19967;-74
2020/12/17 15:11:33;;;;;;;;;;;11.60;99.90;;;;;;4754038;30;19918;-73
2020/12/17 15:13:59;;;;;;;;;;;11.50;99.90;;;;;;4754348;30;19917;-73
2020/12/17 15:16:24;;;;;;;;;;;11.40;99.90;;;;;;4753906;30;19914;-74
2020/12/17 15:18:51;;;;;;;;;;;11.40;99.90;;;;;;4752812;30;20433;-74
2020/12/17 15:21:17;;;;;;;;;;;11.40;99.90;;;;;;4753810;30;19918;-74
2020/12/17 15:23:52;;;;;;;;;;;11.40;99.90;;;;;;4754006;30;19925;-74
2020/12/17 15:26:18;;;;;;;;;;;11.40;99.90;;;;;;4752835;30;19926;-73
2020/12/17 15:29:05;;;;;;;;;;;11.30;99.90;;;;;;4767564;30;19925;-74
2020/12/17 15:31:31;;;;;;;;;;;11.20;99.90;;;;;;4754224;30;19971;-74
2020/12/17 15:33:56;;;;;;;;;;;11.20;99.90;;;;;;4753519;30;19914;-74
2020/12/17 15:36:23;;;;;;;;;;;11.10;99.90;;;;;;4752808;30;19967;-74
2020/12/17 15:38:49;;;;;;;;;;;11.10;99.90;;;;;;4754072;30;20429;-74
2020/12/17 15:41:14;;;;;;;;;;;11.00;99.90;;;;;;4753811;30;19918;-73
2020/12/17 15:43:40;;;;;;;;;;;11.00;99.90;;;;;;4753873;30;19924;-73
2020/12/17 15:46:07;;;;;;;;;;;11.00;99.90;;;;;;4752897;30;20271;-74
2020/12/17 15:48:35;;;;;;;;;;;10.90;99.90;;;;;;4747764;30;19930;-74
2020/12/17 15:51:08;;;;;;;;;;;10.90;99.90;;;;;;4736638;30;19914;-73
2020/12/17 15:53:34;;;;;;;;;;;10.80;99.90;;;;;;4736499;30;19926;-74
2020/12/17 15:56:00;;;;;;;;;;;10.70;99.90;;;;;;4735994;30;19968;-74
2020/12/17 15:58:25;;;;;;;;;;;10.60;99.90;;;;;;4735104;30;19942;-74
2020/12/17 16:00:51;;;;;;;;;;;10.50;99.90;;;;;;4722244;30;19925;-72
2020/12/17 16:03:17;;;;;;;;;;;10.40;99.90;;;;;;4714776;30;19978;-74
2020/12/17 16:05:43;;;;;;;;;;;10.40;99.90;;;;;;4733081;30;19950;-74
2020/12/17 16:08:09;;;;;;;;;;;10.40;99.90;;;;;;4725598;30;19915;-74
2020/12/17 16:10:36;;;;;;;;;;;10.30;99.90;;;;;;4717560;30;19921;-74
2020/12/17 16:13:02;;;;;;;;;;;10.20;99.90;;;;;;4717238;30;20351;-74
2020/12/17 16:15:27;;;;;;;;;;;10.20;99.90;;;;;;4717788;30;19915;-74